Time;durP1;ratioP1;P1;durP2;ratioP2;P2;SDS_P1;SDS_P2;PMS_P1;PMS_P2;Temp;Humidity;BMP_temperature;BMP_pressure;BME280_temperature;BME280_humidity;BME280_pressure;Samples;Min_cycle;Max_cycle;Signal;HPM_P1;HPM_P2
2021/03/07 00:02:21;;;;;;;8.63;6.90;;;;;;;3.55;100.00;103084.52;1769224;79;933390;-76
2021/03/07 00:04:51;;;;;;;11.00;7.30;;;;;;;3.51;100.00;103084.01;1757940;79;934513;-76
2021/03/07 00:07:21;;;;;;;12.00;6.97;;;;;;;3.59;100.00;103087.23;1769070;79;936507;-77
2021/03/07 00:09:50;;;;;;;8.77;6.87;;;;;;;3.50;100.00;103080.09;1757502;79;936634;-76
2021/03/07 00:12:23;;;;;;;11.27;7.67;;;;;;;3.54;100.00;103076.79;1769272;78;934444;-77
2021/03/07 00:14:53;;;;;;;10.20;7.43;;;;;;;3.75;100.00;103077.98;1757366;79;935906;-76
2021/03/07 00:17:23;;;;;;;11.13;7.60;;;;;;;3.40;100.00;103084.45;1769071;79;936752;-76
2021/03/07 00:19:52;;;;;;;10.17;7.70;;;;;;;3.36;100.00;103074.87;1757523;78;936748;-76
2021/03/07 00:22:22;;;;;;;10.97;7.97;;;;;;;3.27;100.00;103074.59;1768979;79;936555;-76
2021/03/07 00:24:52;;;;;;;12.83;7.77;;;;;;;3.11;100.00;103071.96;1757302;78;935441;-76
2021/03/07 00:27:22;;;;;;;12.55;7.50;;;;;;;3.14;100.00;103071.59;1768881;79;935597;-77
2021/03/07 00:29:52;;;;;;;10.10;8.20;;;;;;;3.05;100.00;103076.28;1757492;78;935519;-76
2021/03/07 00:32:21;;;;;;;11.63;8.83;;;;;;;3.09;100.00;103085.00;1768979;79;936954;-77
2021/03/07 00:34:51;;;;;;;13.30;8.60;;;;;;;2.89;100.00;103078.27;1757334;78;936524;-76
2021/03/07 00:37:21;;;;;;;12.17;8.53;;;;;;;2.94;100.00;103073.09;1768889;79;935737;-77
2021/03/07 00:39:51;;;;;;;14.87;8.70;;;;;;;2.93;100.00;103073.61;1757340;79;936634;-76
2021/03/07 00:42:21;;;;;;;11.87;8.47;;;;;;;2.91;100.00;103068.80;1775127;77;936555;-76
2021/03/07 00:44:51;;;;;;;13.30;9.67;;;;;;;2.93;100.00;103065.38;1777171;78;935574;-76
2021/03/07 00:47:20;;;;;;;13.80;9.30;;;;;;;2.89;100.00;103068.15;1769106;79;936853;-76
2021/03/07 00:49:50;;;;;;;11.43;8.53;;;;;;;2.79;100.00;103067.51;1757567;79;935289;-77
2021/03/07 00:52:20;;;;;;;12.97;8.97;;;;;;;2.88;100.00;103066.95;1768983;78;935529;-76
2021/03/07 00:54:50;;;;;;;11.83;8.60;;;;;;;3.03;100.00;103064.64;1757410;79;936651;-76
2021/03/07 00:57:20;;;;;;;11.38;9.15;;;;;;;2.72;100.00;103066.02;1768901;79;936846;-76
2021/03/07 00:59:50;;;;;;;12.17;9.30;;;;;;;2.68;100.00;103061.92;1757359;79;935324;-76
2021/03/07 01:02:20;;;;;;;11.30;9.23;;;;;;;2.74;100.00;103058.44;1768768;79;935582;-76
2021/03/07 01:04:49;;;;;;;12.90;8.97;;;;;;;2.73;100.00;103058.13;1757357;79;936470;-76
2021/03/07 01:07:20;;;;;;;14.67;9.57;;;;;;;2.82;100.00;103053.96;1768896;79;936562;-76
2021/03/07 01:09:50;;;;;;;13.63;9.43;;;;;;;2.90;100.00;103058.03;1757318;78;935482;-76
2021/03/07 01:12:19;;;;;;;11.67;8.97;;;;;;;2.77;100.00;103055.88;1768958;79;936805;-77
2021/03/07 01:14:49;;;;;;;12.47;8.83;;;;;;;2.64;100.00;103060.58;1757179;79;935250;-76
2021/03/07 01:17:19;;;;;;;15.33;9.43;;;;;;;2.52;100.00;103055.14;1768767;79;935420;-76
2021/03/07 01:19:49;;;;;;;12.53;9.60;;;;;;;2.47;100.00;103052.59;1757145;79;936588;-75
2021/03/07 01:22:19;;;;;;;13.63;9.40;;;;;;;2.45;100.00;103059.61;1768742;79;936563;-76
2021/03/07 01:24:49;;;;;;;12.33;9.20;;;;;;;2.57;100.00;103061.44;1757494;79;936486;-76
2021/03/07 01:27:19;;;;;;;15.47;9.73;;;;;;;2.48;100.00;103049.65;1734867;81;935544;-76
2021/03/07 01:29:49;;;;;;;12.30;9.13;;;;;;;2.18;100.00;103061.45;1701359;83;935794;-76
2021/03/07 01:32:19;;;;;;;12.67;9.27;;;;;;;2.15;100.00;103058.52;1726766;80;936738;-76
2021/03/07 01:34:49;;;;;;;13.03;10.10;;;;;;;2.31;100.00;103050.74;1761465;79;936777;-76
2021/03/07 01:37:19;;;;;;;14.60;9.63;;;;;;;2.46;100.00;103038.02;1768367;79;938569;-75
2021/03/07 01:39:49;;;;;;;14.50;9.83;;;;;;;2.57;100.00;103038.12;1759139;79;935237;-75
2021/03/07 01:42:19;;;;;;;12.53;10.30;;;;;;;2.56;100.00;103039.18;1716155;80;935466;-75
2021/03/07 01:44:49;;;;;;;12.60;10.30;;;;;;;2.62;100.00;103041.19;1749177;80;938769;-76
2021/03/07 01:47:24;;;;;;;13.07;9.90;;;;;;;2.77;100.00;103037.17;1768788;79;938639;-76
2021/03/07 01:49:54;;;;;;;12.73;10.28;;;;;;;2.92;100.00;103034.84;1757398;79;935590;-76
2021/03/07 01:52:24;;;;;;;14.33;10.70;;;;;;;2.85;100.00;103031.63;1768957;79;937812;-76
2021/03/07 01:54:54;;;;;;;12.68;9.93;;;;;;;3.19;100.00;103027.96;1756975;79;938919;-77
2021/03/07 01:57:26;;;;;;;13.40;10.27;;;;;;;3.24;100.00;103020.55;1768940;79;936553;-77
2021/03/07 01:59:59;;;;;;;15.90;11.07;;;;;;;2.95;100.00;103015.80;1757180;79;938755;-76
2021/03/07 02:02:29;;;;;;;13.67;9.93;;;;;;;2.84;100.00;103017.56;1768654;79;937624;-75
2021/03/07 02:04:59;;;;;;;11.53;9.03;;;;;;;2.90;100.00;103012.22;1757126;79;935309;-75
2021/03/07 02:07:29;;;;;;;12.63;9.30;;;;;;;2.93;100.00;103010.48;1768744;79;936705;-75
2021/03/07 02:09:59;;;;;;;10.40;8.58;;;;;;;2.61;100.00;103006.03;1757038;79;935847;-76
2021/03/07 02:12:29;;;;;;;10.50;7.93;;;;;;;2.46;100.00;103002.87;1768807;79;936593;-75
2021/03/07 02:15:00;;;;;;;11.47;8.60;;;;;;;2.44;100.00;103008.52;1757249;79;935451;-77
2021/03/07 02:17:30;;;;;;;12.87;8.40;;;;;;;2.54;100.00;103005.56;1768773;78;935312;-76
2021/03/07 02:20:00;;;;;;;11.83;9.13;;;;;;;2.63;100.00;102999.86;1757124;79;936533;-76
2021/03/07 02:22:33;;;;;;;10.63;8.70;;;;;;;2.72;100.00;102996.55;1768954;79;936589;-77
2021/03/07 02:25:05;;;;;;;12.37;8.90;;;;;;;2.96;100.00;102989.52;1757493;79;936560;-76
2021/03/07 02:27:36;;;;;;;8.70;7.77;;;;;;;3.02;100.00;102985.19;1768833;79;934732;-77
2021/03/07 02:30:09;;;;;;;13.53;8.50;;;;;;;2.84;100.00;102980.00;1757638;79;934621;-77
2021/03/07 02:32:42;;;;;;;13.00;9.37;;;;;;;2.82;100.00;102981.23;1769065;79;934708;-76
2021/03/07 02:35:17;;;;;;;10.47;8.10;;;;;;;2.93;100.00;102981.66;1757427;79;936506;-75
2021/03/07 02:37:50;;;;;;;9.63;7.70;;;;;;;3.25;100.00;102979.18;1769069;79;934708;-75
2021/03/07 02:40:22;;;;;;;11.50;8.68;;;;;;;3.06;100.00;102982.41;1768922;79;933348;-76
2021/03/07 02:42:53;;;;;;;10.40;9.17;;;;;;;3.07;100.00;102971.77;1757156;78;936769;-75
2021/03/07 02:45:24;;;;;;;12.70;9.23;;;;;;;2.97;100.00;102973.90;1768921;79;936753;-76
2021/03/07 02:47:56;;;;;;;13.85;9.33;;;;;;;3.34;100.00;102972.55;1757174;78;936692;-76
2021/03/07 02:50:28;;;;;;;14.50;9.37;;;;;;;3.35;100.00;102974.78;1768779;78;936578;-76
2021/03/07 02:53:03;;;;;;;10.97;8.43;;;;;;;3.06;100.00;102968.69;1757454;79;935342;-76
2021/03/07 02:55:35;;;;;;;10.67;9.23;;;;;;;3.04;100.00;102963.36;1768752;79;935562;-75
2021/03/07 02:58:08;;;;;;;11.30;8.78;;;;;;;3.13;100.00;102961.41;1757334;79;936602;-77
2021/03/07 03:00:41;;;;;;;9.43;8.37;;;;;;;3.11;100.00;102958.01;1768984;79;934792;-77
2021/03/07 03:03:12;;;;;;;9.87;8.13;;;;;;;3.11;100.00;102952.00;1757241;79;934475;-76
2021/03/07 03:05:42;;;;;;;10.27;7.73;;;;;;;3.24;100.00;102951.38;1769029;78;932820;-77
2021/03/07 03:08:14;;;;;;;9.10;8.13;;;;;;;3.22;100.00;102954.80;1757377;79;935371;-76
2021/03/07 03:10:46;;;;;;;11.43;8.17;;;;;;;3.06;100.00;102952.21;1768960;79;932529;-75
2021/03/07 03:13:16;;;;;;;9.23;7.90;;;;;;;3.06;100.00;102957.19;1768896;79;936600;-77
2021/03/07 03:15:47;;;;;;;11.47;8.97;;;;;;;2.96;100.00;102951.59;1768919;78;932587;-77
2021/03/07 03:18:18;;;;;;;12.93;8.38;;;;;;;2.82;100.00;102946.41;1768843;79;936899;-77
2021/03/07 03:20:51;;;;;;;11.43;9.67;;;;;;;2.93;100.00;102946.48;1768861;79;933754;-76
2021/03/07 03:23:22;;;;;;;11.73;8.80;;;;;;;2.93;100.00;102945.11;1768898;79;936506;-76
2021/03/07 03:25:52;;;;;;;12.17;8.77;;;;;;;3.01;100.00;102945.90;1757348;79;936781;-76
2021/03/07 03:28:23;;;;;;;10.17;8.23;;;;;;;2.98;100.00;102940.78;1768918;79;936556;-75
2021/03/07 03:30:54;;;;;;;11.80;8.93;;;;;;;2.95;100.00;102945.80;1757411;79;936463;-76
2021/03/07 03:33:25;;;;;;;10.57;8.40;;;;;;;3.06;100.00;102939.34;1768960;79;936485;-76
2021/03/07 03:35:55;;;;;;;11.80;8.90;;;;;;;3.09;100.00;102936.73;1757379;79;936567;-76
2021/03/07 03:38:28;;;;;;;11.00;8.07;;;;;;;3.34;100.00;102935.46;1768920;79;936552;-76
2021/03/07 03:40:59;;;;;;;11.95;8.38;;;;;;;3.17;100.00;102924.30;1757265;78;936475;-76
2021/03/07 03:43:30;;;;;;;11.20;8.70;;;;;;;3.21;100.00;102935.24;1768889;78;936468;-77
2021/03/07 03:46:02;;;;;;;12.03;8.43;;;;;;;3.62;100.00;102935.19;1757298;79;936789;-77
2021/03/07 03:48:52;;;;;;;11.15;9.00;;;;;;;3.33;100.00;102931.55;1674576;83;936676;-77
2021/03/07 03:51:25;;;;;;;11.03;8.43;;;;;;;3.51;100.00;102933.40;1683988;83;936720;-76
2021/03/07 03:53:57;;;;;;;12.35;8.23;;;;;;;3.62;100.00;102929.69;1673085;83;936643;-78
2021/03/07 03:56:27;;;;;;;9.60;8.13;;;;;;;3.54;100.00;102925.66;1684003;83;936683;-77
2021/03/07 03:59:00;;;;;;;10.07;7.93;;;;;;;3.67;100.00;102926.38;1673268;83;934574;-77
2021/03/07 04:01:30;;;;;;;11.13;8.30;;;;;;;3.81;100.00;102915.88;1683967;83;936501;-77
2021/03/07 04:04:03;;;;;;;9.73;7.60;;;;;;;3.78;100.00;102912.67;1673069;83;938739;-76
2021/03/07 04:06:34;;;;;;;9.80;7.90;;;;;;;3.49;100.00;102919.02;1684221;82;934726;-76
2021/03/07 04:09:05;;;;;;;9.40;7.43;;;;;;;3.29;100.00;102919.23;1673192;83;934596;-77
2021/03/07 04:11:36;;;;;;;10.37;7.60;;;;;;;3.46;100.00;102920.26;1684016;83;932935;-76
2021/03/07 04:14:06;;;;;;;9.15;7.78;;;;;;;3.56;100.00;102918.06;1673039;82;936642;-77
2021/03/07 04:16:36;;;;;;;8.27;7.47;;;;;;;3.57;100.00;102914.80;1684166;83;932700;-77
2021/03/07 04:19:08;;;;;;;9.58;7.40;;;;;;;3.79;100.00;102908.88;1673215;83;934644;-77
2021/03/07 04:21:40;;;;;;;11.22;7.78;;;;;;;3.61;100.00;102914.75;1754920;78;932625;-76
2021/03/07 04:24:13;;;;;;;11.00;7.63;;;;;;;3.40;100.00;102912.75;1757245;78;936641;-76
2021/03/07 04:26:42;;;;;;;9.83;8.03;;;;;;;3.46;100.00;102916.66;1768976;79;934719;-76
2021/03/07 04:29:13;;;;;;;9.40;7.17;;;;;;;3.81;100.00;102914.51;1757414;79;934846;-76
2021/03/07 04:31:44;;;;;;;9.80;7.23;;;;;;;3.77;100.00;102908.20;1769140;79;932835;-76
2021/03/07 04:34:15;;;;;;;9.57;7.63;;;;;;;3.56;100.00;102915.84;1768993;79;934645;-76
2021/03/07 04:36:46;;;;;;;8.97;7.40;;;;;;;3.36;100.00;102910.05;1769066;79;932706;-77
2021/03/07 04:39:15;;;;;;;8.20;7.10;;;;;;;3.36;100.00;102910.05;1768907;79;934576;-77
2021/03/07 04:41:46;;;;;;;8.73;7.10;;;;;;;3.36;100.00;102908.67;1769052;79;932422;-76
2021/03/07 04:44:15;;;;;;;9.63;7.03;;;;;;;3.44;100.00;102908.59;1769070;78;934450;-76
2021/03/07 04:46:45;;;;;;;9.70;7.37;;;;;;;3.89;100.00;102904.81;1769020;79;932569;-76
2021/03/07 04:49:15;;;;;;;11.23;7.77;;;;;;;3.77;100.00;102904.94;1768992;79;933718;-76
2021/03/07 04:51:45;;;;;;;8.27;7.27;;;;;;;3.61;100.00;102906.52;1768929;79;935014;-76
2021/03/07 04:54:14;;;;;;;9.07;7.40;;;;;;;3.54;100.00;102900.93;1768930;79;933678;-76
2021/03/07 04:56:44;;;;;;;8.23;7.33;;;;;;;3.64;100.00;102888.26;1769058;79;933038;-76
2021/03/07 04:59:15;;;;;;;9.60;7.63;;;;;;;3.75;100.00;102899.31;1768979;79;934550;-76
2021/03/07 05:01:45;;;;;;;7.37;6.53;;;;;;;3.75;100.00;102893.81;1757199;79;932583;-77
2021/03/07 05:04:14;;;;;;;8.20;7.33;;;;;;;3.73;100.00;102896.74;1768973;79;934570;-77
2021/03/07 05:06:44;;;;;;;8.83;7.23;;;;;;;3.61;100.00;102900.50;1769074;79;932625;-77
2021/03/07 05:09:14;;;;;;;9.30;7.67;;;;;;;3.56;100.00;102905.70;1769045;78;934391;-77
2021/03/07 05:11:45;;;;;;;8.20;7.13;;;;;;;3.43;100.00;102898.63;1768944;78;932609;-77
2021/03/07 05:14:14;;;;;;;8.77;6.63;;;;;;;3.57;100.00;102899.69;1768952;79;934488;-77
2021/03/07 05:16:44;;;;;;;11.13;7.00;;;;;;;3.97;100.00;102890.95;1768987;79;932659;-75
2021/03/07 05:19:14;;;;;;;10.10;7.70;;;;;;;3.70;100.00;102899.02;1768795;79;936947;-76
2021/03/07 05:21:44;;;;;;;10.67;7.40;;;;;;;3.80;100.00;102898.23;1769038;79;934965;-76
2021/03/07 05:24:14;;;;;;;11.53;7.73;;;;;;;3.72;100.00;102897.81;1768915;78;935508;-76
2021/03/07 05:26:45;;;;;;;9.00;6.97;;;;;;;3.78;100.00;102892.05;1768897;79;934825;-75
2021/03/07 05:29:15;;;;;;;10.37;7.17;;;;;;;3.94;100.00;102889.95;1768993;79;933483;-76
2021/03/07 05:31:45;;;;;;;8.70;6.57;;;;;;;3.73;100.00;102887.13;1768806;79;934709;-75
2021/03/07 05:34:15;;;;;;;7.97;6.70;;;;;;;3.49;100.00;102897.89;1768833;79;934641;-75
2021/03/07 05:36:45;;;;;;;10.23;7.40;;;;;;;3.59;100.00;102882.50;1768883;79;931993;-75
2021/03/07 05:39:15;;;;;;;8.23;7.30;;;;;;;3.66;100.00;102887.56;1768781;79;936586;-76
2021/03/07 05:41:45;;;;;;;8.53;7.17;;;;;;;3.53;100.00;102888.23;1769038;79;932640;-75
2021/03/07 05:44:16;;;;;;;7.80;6.97;;;;;;;3.46;100.00;102885.91;1769000;79;934466;-75
2021/03/07 05:46:46;;;;;;;8.07;6.80;;;;;;;3.47;100.00;102889.48;1768915;79;932466;-75
2021/03/07 05:49:16;;;;;;;8.20;7.07;;;;;;;3.44;100.00;102887.13;1768897;79;934505;-75
2021/03/07 05:51:46;;;;;;;8.17;6.97;;;;;;;3.56;100.00;102882.86;1769040;79;932596;-75
2021/03/07 05:54:17;;;;;;;7.37;6.67;;;;;;;3.49;100.00;102891.54;1769023;79;934591;-75
2021/03/07 05:56:50;;;;;;;8.75;7.28;;;;;;;3.67;100.00;102887.91;1768793;79;932614;-75
2021/03/07 05:59:21;;;;;;;8.67;6.93;;;;;;;3.80;100.00;102884.48;1768842;79;934551;-76
2021/03/07 06:01:50;;;;;;;8.67;6.87;;;;;;;3.89;100.00;102880.08;1757257;79;934657;-77
2021/03/07 06:04:20;;;;;;;8.50;7.00;;;;;;;3.98;100.00;102883.02;1768954;78;934624;-77
2021/03/07 06:06:50;;;;;;;7.83;7.03;;;;;;;3.99;100.00;102881.13;1757285;79;933537;-77
2021/03/07 06:09:22;;;;;;;8.73;6.37;;;;;;;3.86;100.00;102880.44;1768984;79;934470;-77
2021/03/07 06:11:54;;;;;;;8.10;7.20;;;;;;;3.71;100.00;102886.48;1757307;79;934625;-76
2021/03/07 06:14:27;;;;;;;10.03;6.63;;;;;;;3.57;100.00;102887.32;1768976;78;934857;-77
2021/03/07 06:17:08;;;;;;;8.43;6.78;;;;;;;3.51;100.00;102886.69;1757164;78;935347;-77
2021/03/07 06:19:59;;;;;;;7.43;6.60;;;;;;;3.52;100.00;102887.03;1768862;79;932739;-77
2021/03/07 06:22:32;;;;;;;6.63;5.77;;;;;;;3.47;100.00;102887.59;1768997;78;934504;-77
2021/03/07 06:25:04;;;;;;;10.58;6.80;;;;;;;3.49;100.00;102881.92;1757506;79;934445;-76
2021/03/07 06:27:34;;;;;;;8.93;6.37;;;;;;;3.62;100.00;102882.97;1768877;79;934989;-77
2021/03/07 06:30:08;;;;;;;6.80;5.80;;;;;;;3.57;100.00;102877.19;1757521;79;934437;-76
2021/03/07 06:32:40;;;;;;;7.97;5.80;;;;;;;3.36;100.00;102878.98;1768886;79;931295;-77
2021/03/07 06:35:13;;;;;;;7.33;5.47;;;;;;;3.31;100.00;102880.05;1757363;78;934479;-77
2021/03/07 06:37:58;;;;;;;10.90;6.00;;;;;;;3.31;100.00;102878.16;1769073;79;932455;-77
2021/03/07 06:40:33;;;;;;;8.90;5.10;;;;;;;3.29;100.00;102880.27;1768865;79;936905;-77
2021/03/07 06:43:05;;;;;;;7.70;5.83;;;;;;;3.34;100.00;102883.27;1757524;79;934395;-77
2021/03/07 06:45:40;;;;;;;8.63;5.70;;;;;;;3.48;100.00;102883.81;1768972;79;933080;-77
2021/03/07 06:48:11;;;;;;;8.17;5.90;;;;;;;3.50;100.00;102880.38;1757234;79;933299;-77
2021/03/07 06:50:54;;;;;;;8.37;6.43;;;;;;;3.57;100.00;102877.19;1768891;79;932384;-76
2021/03/07 06:53:33;;;;;;;7.10;5.20;;;;;;;3.65;100.00;102877.61;1768961;79;934722;-76
2021/03/07 06:56:03;;;;;;;8.50;5.58;;;;;;;3.57;100.00;102879.94;1757372;79;934628;-76
2021/03/07 06:58:34;;;;;;;7.40;5.70;;;;;;;3.69;100.00;102873.43;1768865;79;934644;-77
2021/03/07 07:01:05;;;;;;;7.73;5.30;;;;;;;3.62;100.00;102882.12;1757391;79;934613;-77
2021/03/07 07:03:35;;;;;;;7.67;5.07;;;;;;;3.64;100.00;102886.88;1769326;78;932902;-76
2021/03/07 07:06:07;;;;;;;6.80;5.03;;;;;;;3.54;100.00;102894.06;1757485;79;933447;-77
2021/03/07 07:08:47;;;;;;;8.73;5.23;;;;;;;3.54;100.00;102884.97;1769052;79;932803;-77
2021/03/07 07:11:17;;;;;;;9.17;5.13;;;;;;;3.54;100.00;102884.97;1768916;78;934464;-78
2021/03/07 07:13:48;;;;;;;6.63;5.07;;;;;;;3.61;100.00;102881.26;1768874;79;932570;-78
2021/03/07 07:16:18;;;;;;;6.10;4.77;;;;;;;3.75;100.00;102888.31;1768808;79;934502;-77
2021/03/07 07:18:49;;;;;;;5.60;4.70;;;;;;;3.62;100.00;102885.72;1766017;79;934475;-77
2021/03/07 07:21:20;;;;;;;6.30;4.83;;;;;;;3.59;100.00;102881.95;1734908;80;934557;-77
2021/03/07 07:23:50;;;;;;;5.73;4.90;;;;;;;3.56;100.00;102884.23;1697832;83;933751;-76
2021/03/07 07:26:20;;;;;;;5.13;4.63;;;;;;;3.61;100.00;102879.88;1709253;83;933308;-77
2021/03/07 07:28:50;;;;;;;6.13;4.53;;;;;;;3.64;100.00;102883.62;1698078;81;934440;-77
2021/03/07 07:31:23;;;;;;;6.47;4.13;;;;;;;3.68;100.00;102877.77;1709411;83;934670;-77
2021/03/07 07:33:55;;;;;;;4.90;4.40;;;;;;;3.75;100.00;102879.55;1698119;82;934533;-77
2021/03/07 07:36:28;;;;;;;4.83;3.70;;;;;;;4.01;100.00;102878.53;1709297;82;934487;-78
2021/03/07 07:39:01;;;;;;;5.70;3.80;;;;;;;3.99;100.00;102883.87;1698201;83;934872;-75
2021/03/07 07:41:36;;;;;;;4.53;3.65;;;;;;;3.88;100.00;102874.75;1709389;83;934455;-75
2021/03/07 07:44:09;;;;;;;4.50;3.75;;;;;;;3.95;100.00;102879.80;1749130;79;934743;-75
2021/03/07 07:46:59;;;;;;;3.80;3.50;;;;;;;3.98;100.00;102872.02;1760502;80;932807;-76
2021/03/07 07:49:44;;;;;;;6.17;3.70;;;;;;;4.32;100.00;102878.80;1760424;79;934922;-76
2021/03/07 07:52:36;;;;;;;4.23;3.67;;;;;;;4.24;100.00;102882.48;1748754;79;941292;-75
2021/03/07 07:55:14;;;;;;;4.40;3.20;;;;;;;4.28;100.00;102881.60;1749013;79;934673;-74
2021/03/07 07:57:50;;;;;;;5.23;3.30;;;;;;;4.31;100.00;102877.08;1760349;80;932549;-75
2021/03/07 08:00:24;;;;;;;5.63;3.60;;;;;;;4.37;100.00;102875.76;1760250;80;934538;-75
2021/03/07 08:02:58;;;;;;;3.73;3.43;;;;;;;4.32;100.00;102879.61;1748744;79;936487;-75
2021/03/07 08:05:56;;;;;;;3.50;3.20;;;;;;;4.40;100.00;102875.40;1760338;79;934462;-75
2021/03/07 08:08:36;;;;;;;4.23;3.10;;;;;;;4.39;100.00;102879.19;1749251;79;934656;-75
2021/03/07 08:11:07;;;;;;;4.12;3.75;;;;;;;4.55;100.00;102882.20;1748883;79;934434;-75
2021/03/07 08:13:49;;;;;;;4.13;3.40;;;;;;;4.52;100.00;102874.34;1760420;80;931597;-74
2021/03/07 08:16:40;;;;;;;5.50;3.37;;;;;;;4.66;100.00;102879.47;1760282;80;933609;-75
2021/03/07 08:19:12;;;;;;;3.40;3.10;;;;;;;4.62;100.00;102878.16;1748922;80;933251;-75
2021/03/07 08:22:04;;;;;;;4.07;2.80;;;;;;;4.77;100.00;102877.03;1760534;80;933295;-76
2021/03/07 08:24:53;;;;;;;3.00;2.53;;;;;;;4.58;100.00;102874.40;1760355;79;932679;-75
2021/03/07 08:27:38;;;;;;;2.73;2.53;;;;;;;4.65;100.00;102869.50;1760464;80;934784;-76
2021/03/07 08:30:10;;;;;;;3.80;3.30;;;;;;;4.81;100.00;102871.97;1748949;80;934731;-75
2021/03/07 08:32:42;;;;;;;3.87;2.80;;;;;;;4.76;100.00;102875.31;1760319;80;932490;-76
2021/03/07 08:35:14;;;;;;;4.90;2.97;;;;;;;4.68;100.00;102877.35;1748770;79;933912;-74
2021/03/07 08:37:46;;;;;;;2.90;2.70;;;;;;;4.82;100.00;102873.16;1760543;80;932660;-75
2021/03/07 08:40:36;;;;;;;3.70;2.50;;;;;;;4.80;100.00;102871.13;1760574;80;933279;-75
2021/03/07 08:43:57;;;;;;;3.85;2.70;;;;;;;4.82;100.00;102871.79;1749248;79;933230;-77
2021/03/07 08:46:29;;;;;;;3.07;2.47;;;;;;;4.85;100.00;102869.15;1760613;78;934740;-74
2021/03/07 08:49:08;;;;;;;3.73;3.30;;;;;;;4.84;100.00;102875.18;1749013;79;933647;-74
2021/03/07 08:51:41;;;;;;;3.50;3.20;;;;;;;5.01;100.00;102871.61;1760556;80;931625;-74
2021/03/07 08:54:13;;;;;;;6.07;3.80;;;;;;;4.84;100.00;102867.44;1749093;79;933239;-75
2021/03/07 08:56:44;;;;;;;4.90;4.27;;;;;;;5.01;100.00;102864.20;1760554;80;931662;-75
2021/03/07 08:59:14;;;;;;;4.17;3.77;;;;;;;4.99;100.00;102860.82;1760365;80;933516;-74
2021/03/07 09:01:46;;;;;;;5.60;4.23;;;;;;;5.13;100.00;102860.41;1760464;80;932655;-75
2021/03/07 09:04:16;;;;;;;5.00;4.50;;;;;;;4.93;100.00;102859.37;1760489;80;934499;-75
2021/03/07 09:06:47;;;;;;;4.17;3.77;;;;;;;5.06;100.00;102858.10;1760665;79;931435;-74
2021/03/07 09:09:19;;;;;;;5.33;4.50;;;;;;;5.16;100.00;102859.99;1760631;79;934560;-75
2021/03/07 09:11:53;;;;;;;5.80;5.28;;;;;;;5.05;100.00;102859.14;1752492;80;933753;-76
2021/03/07 09:14:31;;;;;;;5.30;4.80;;;;;;;5.11;100.00;102864.39;1760566;80;934449;-75
2021/03/07 09:17:03;;;;;;;5.30;4.80;;;;;;;5.01;100.00;102864.73;1748998;79;934608;-76
2021/03/07 09:19:37;;;;;;;5.20;4.60;;;;;;;5.13;100.00;102852.14;1760593;80;934504;-74
2021/03/07 09:22:19;;;;;;;5.10;4.60;;;;;;;5.00;100.00;102865.80;1749251;80;934656;-76
2021/03/07 09:24:55;;;;;;;6.57;5.87;;;;;;;5.07;100.00;102857.06;1748993;79;934524;-76
2021/03/07 09:27:27;;;;;;;7.37;5.93;;;;;;;5.20;100.00;102854.93;1758176;80;934515;-74
2021/03/07 09:30:07;;;;;;;6.67;5.95;;;;;;;5.16;100.00;102850.35;1746572;80;934432;-75
2021/03/07 09:32:40;;;;;;;6.97;5.83;;;;;;;5.08;100.00;102847.75;1758165;80;932495;-74
2021/03/07 09:35:22;;;;;;;6.73;6.13;;;;;;;5.33;100.00;102847.61;1746515;80;934435;-73
2021/03/07 09:37:58;;;;;;;7.07;6.37;;;;;;;5.36;100.00;102840.83;1746534;79;934558;-75
2021/03/07 09:40:31;;;;;;;10.80;7.17;;;;;;;5.21;100.00;102836.83;1758305;80;934322;-77
2021/03/07 09:43:03;;;;;;;8.25;7.45;;;;;;;5.15;100.00;102841.75;1746386;80;939361;-75
2021/03/07 09:45:35;;;;;;;8.93;8.03;;;;;;;5.23;100.00;102837.98;1758199;80;933612;-76
2021/03/07 09:48:07;;;;;;;8.00;6.93;;;;;;;5.11;100.00;102846.48;1746690;80;933299;-78
2021/03/07 09:50:37;;;;;;;8.23;7.43;;;;;;;5.06;100.00;102845.70;1758114;80;932394;-75
2021/03/07 09:53:07;;;;;;;9.50;8.00;;;;;;;5.05;100.00;102845.38;1746688;80;934686;-73
2021/03/07 09:55:37;;;;;;;9.17;8.20;;;;;;;5.26;100.00;102841.73;1758060;80;932672;-74
2021/03/07 09:58:09;;;;;;;8.45;7.65;;;;;;;5.07;100.00;102844.66;1746712;80;934546;-74
2021/03/07 10:00:40;;;;;;;9.30;8.18;;;;;;;5.21;100.00;102845.62;1758054;80;932592;-73
2021/03/07 10:03:20;;;;;;;9.83;8.40;;;;;;;5.30;100.00;102848.55;1746474;80;934915;-72
2021/03/07 10:06:15;;;;;;;9.30;8.40;;;;;;;5.30;100.00;102848.55;1746585;80;934734;-73
2021/03/07 10:08:47;;;;;;;9.20;8.17;;;;;;;5.39;100.00;102837.70;1757847;80;932687;-76
2021/03/07 10:11:22;;;;;;;9.63;8.20;;;;;;;5.41;100.00;102831.44;1758067;80;934486;-74
2021/03/07 10:14:01;;;;;;;9.10;8.20;;;;;;;5.45;100.00;102828.59;1746437;80;934729;-77
2021/03/07 10:16:33;;;;;;;8.73;7.83;;;;;;;5.44;100.00;102831.88;1758001;80;934980;-75
2021/03/07 10:19:09;;;;;;;9.13;8.17;;;;;;;5.62;100.00;102829.11;1746489;79;933701;-76
2021/03/07 10:21:40;;;;;;;9.20;8.13;;;;;;;5.45;100.00;102825.31;1758060;80;931365;-76
2021/03/07 10:24:14;;;;;;;9.17;8.27;;;;;;;5.36;100.00;102823.77;1746348;80;933310;-76
2021/03/07 10:26:47;;;;;;;9.27;8.23;;;;;;;5.67;100.00;102827.45;1757833;79;931464;-76
2021/03/07 10:29:31;;;;;;;11.33;8.77;;;;;;;5.62;100.00;102823.59;1757920;79;933330;-77
2021/03/07 10:32:03;;;;;;;8.78;7.85;;;;;;;5.66;100.00;102820.23;1746244;79;936593;-78
2021/03/07 10:34:34;;;;;;;9.87;8.43;;;;;;;5.68;100.00;102827.78;1758035;80;934769;-77
2021/03/07 10:37:05;;;;;;;10.38;8.85;;;;;;;5.73;100.00;102823.03;1746630;80;934536;-76
2021/03/07 10:39:35;;;;;;;9.33;8.43;;;;;;;5.64;100.00;102821.50;1757999;80;934695;-76
2021/03/07 10:42:13;;;;;;;9.35;8.38;;;;;;;5.71;100.00;102826.51;1746529;80;934816;-77
2021/03/07 10:44:44;;;;;;;11.13;9.00;;;;;;;5.67;100.00;102823.84;1758066;80;932546;-76
2021/03/07 10:47:19;;;;;;;8.97;8.07;;;;;;;5.58;100.00;102820.92;1757806;79;936530;-76
2021/03/07 10:49:51;;;;;;;10.57;8.50;;;;;;;5.87;100.00;102821.52;1746826;80;934726;-76
2021/03/07 10:52:21;;;;;;;8.80;7.90;;;;;;;5.76;100.00;102813.81;1758275;78;936650;-77
2021/03/07 10:54:50;;;;;;;10.27;8.67;;;;;;;5.31;100.00;102805.61;1757432;79;934453;-76
2021/03/07 10:57:20;;;;;;;8.93;8.03;;;;;;;5.47;100.00;102814.10;1768805;78;936675;-76
2021/03/07 10:59:52;;;;;;;9.13;8.13;;;;;;;5.82;100.00;102812.13;1757425;79;934450;-76
2021/03/07 11:02:21;;;;;;;9.53;8.53;;;;;;;5.88;100.00;102811.34;1768833;79;934586;-76
2021/03/07 11:04:51;;;;;;;8.90;8.03;;;;;;;5.98;100.00;102809.58;1757510;79;933185;-76
2021/03/07 11:07:21;;;;;;;8.58;7.55;;;;;;;5.91;100.00;102804.88;1768839;79;934493;-76
2021/03/07 11:09:51;;;;;;;9.03;8.10;;;;;;;5.94;100.00;102802.26;1757318;79;933251;-76
2021/03/07 11:12:20;;;;;;;10.10;8.53;;;;;;;6.05;100.00;102800.27;1768797;79;933440;-78
2021/03/07 11:14:50;;;;;;;9.90;8.90;;;;;;;5.85;100.00;102787.77;1757252;78;936496;-77
2021/03/07 11:17:20;;;;;;;10.90;8.40;;;;;;;6.02;100.00;102790.18;1768888;78;934409;-77
2021/03/07 11:19:50;;;;;;;9.20;7.80;;;;;;;5.92;100.00;102794.70;1757314;79;935693;-76
2021/03/07 11:22:20;;;;;;;8.47;7.57;;;;;;;5.93;100.00;102793.13;1768887;79;934596;-77
2021/03/07 11:24:49;;;;;;;9.20;8.10;;;;;;;6.04;100.00;102775.63;1757175;79;934583;-76
2021/03/07 11:27:20;;;;;;;8.73;7.87;;;;;;;6.38;100.00;102790.66;1768857;79;934771;-76
2021/03/07 11:29:50;;;;;;;9.40;7.13;;;;;;;6.27;100.00;102789.39;1757366;79;934416;-75
2021/03/07 11:32:19;;;;;;;8.63;7.73;;;;;;;6.17;100.00;102793.60;1768793;79;934550;-77
2021/03/07 11:34:49;;;;;;;8.77;7.57;;;;;;;6.20;100.00;102792.67;1757266;79;934506;-76
2021/03/07 11:37:19;;;;;;;8.33;7.43;;;;;;;6.02;100.00;102791.03;1768826;78;934453;-77
2021/03/07 11:39:49;;;;;;;9.13;8.23;;;;;;;6.08;100.00;102790.70;1759202;78;934546;-77